Time;durP1;ratioP1;P1;durP2;ratioP2;P2;SDS_P1;SDS_P2;PMS_P1;PMS_P2;Temp;Humidity;BMP_temperature;BMP_pressure;BME280_temperature;BME280_humidity;BME280_pressure;Samples;Min_cycle;Max_cycle;Signal;HPM_P1;HPM_P2
2022/12/26 00:02:26;;;;;;;24.75;15.45;;;12.10;99.90;;;;;;4957544;28;20035;-77
2022/12/26 00:04:57;;;;;;;24.73;16.45;;;12.00;99.90;;;;;;4964438;28;20082;-78
2022/12/26 00:07:37;;;;;;;27.98;16.42;;;12.00;99.90;;;;;;4955315;28;20046;-78
2022/12/26 00:10:11;;;;;;;25.60;16.02;;;12.00;99.90;;;;;;4974640;28;20055;-78
2022/12/26 00:12:41;;;;;;;25.75;17.77;;;11.90;99.90;;;;;;4962903;28;20889;-78
2022/12/26 00:15:09;;;;;;;21.30;14.85;;;12.00;99.90;;;;;;4959825;28;20078;-77
2022/12/26 00:17:39;;;;;;;21.17;14.90;;;12.00;99.90;;;;;;4968118;28;20050;-77
2022/12/26 00:20:17;;;;;;;24.85;12.85;;;11.90;99.90;;;;;;4964898;28;20038;-77
2022/12/26 00:22:45;;;;;;;27.00;14.70;;;11.90;99.90;;;;;;4951977;28;20046;-78
2022/12/26 00:25:13;;;;;;;27.50;18.80;;;11.90;99.90;;;;;;4961503;28;20061;-77
2022/12/26 00:27:41;;;;;;;23.58;15.10;;;11.90;99.90;;;;;;4960167;28;20051;-77
2022/12/26 00:30:19;;;;;;;27.27;16.63;;;11.90;99.90;;;;;;4968586;28;20061;-77
2022/12/26 00:32:55;;;;;;;26.67;15.98;;;11.90;99.90;;;;;;4970529;28;20066;-78
2022/12/26 00:35:25;;;;;;;25.27;16.17;;;11.80;99.90;;;;;;4971552;28;20475;-78
2022/12/26 00:37:54;;;;;;;26.75;17.27;;;11.80;99.90;;;;;;4960595;28;20046;-79
2022/12/26 00:40:25;;;;;;;30.52;18.08;;;11.80;99.90;;;;;;4963607;28;20039;-78
2022/12/26 00:42:56;;;;;;;28.45;19.55;;;11.80;99.90;;;;;;4968078;28;20346;-77
2022/12/26 00:45:24;;;;;;;33.00;20.40;;;11.80;99.90;;;;;;4962821;28;20047;-78
2022/12/26 00:47:51;;;;;;;34.28;20.60;;;11.80;99.90;;;;;;4960170;28;20436;-78
2022/12/26 00:50:19;;;;;;;39.65;21.02;;;11.80;99.90;;;;;;4969599;28;20525;-77
2022/12/26 00:52:48;;;;;;;48.33;24.45;;;11.80;99.90;;;;;;4972807;28;20195;-77
2022/12/26 00:55:16;;;;;;;58.30;26.58;;;11.70;99.90;;;;;;4970625;28;20475;-78
2022/12/26 00:57:43;;;;;;;54.80;25.25;;;11.60;99.90;;;;;;4961518;28;20050;-77
2022/12/26 01:00:12;;;;;;;75.78;25.80;;;11.50;99.90;;;;;;4958619;28;20074;-77
2022/12/26 01:02:42;;;;;;;44.72;15.63;;;11.40;99.90;;;;;;4968192;28;20480;-77
2022/12/26 01:05:24;;;;;;;41.80;10.77;;;11.00;99.90;;;;;;4957477;28;20054;-78
2022/12/26 01:07:51;;;;;;;43.13;10.25;;;10.90;99.90;;;;;;4972056;28;20453;-78
2022/12/26 01:10:19;;;;;;;59.53;10.30;;;10.60;99.90;;;;;;4973014;28;20135;-79
2022/12/26 01:12:46;;;;;;;59.75;11.07;;;10.30;99.90;;;;;;4964752;28;20048;-78
2022/12/26 01:15:14;;;;;;;106.45;14.75;;;10.00;99.90;;;;;;4973087;28;20093;-78
2022/12/26 01:17:41;;;;;;;76.18;13.95;;;9.60;99.90;;;;;;4970983;28;20043;-76
2022/12/26 01:20:09;;;;;;;32.53;10.75;;;9.50;99.90;;;;;;4972663;28;20054;-78
2022/12/26 01:22:37;;;;;;;33.95;12.75;;;9.40;99.90;;;;;;4971739;28;20125;-77
2022/12/26 01:25:05;;;;;;;53.90;14.10;;;9.40;99.90;;;;;;4972799;28;20139;-77
2022/12/26 01:27:32;;;;;;;50.33;13.27;;;9.40;99.90;;;;;;4971461;28;20090;-78
2022/12/26 01:30:00;;;;;;;41.80;13.07;;;9.40;99.90;;;;;;4970546;28;20047;-77
2022/12/26 01:32:28;;;;;;;32.92;11.23;;;9.40;99.90;;;;;;4964300;28;20142;-77
2022/12/26 01:34:56;;;;;;;28.60;9.60;;;9.30;99.90;;;;;;4970848;28;20054;-78
2022/12/26 01:37:23;;;;;;;27.70;10.68;;;9.30;99.90;;;;;;4972489;28;20175;-78
2022/12/26 01:39:51;;;;;;;38.75;10.77;;;9.40;99.90;;;;;;4971923;28;20563;-78
2022/12/26 01:42:22;;;;;;;13.00;7.40;;;9.50;99.90;;;;;;4964725;28;20045;-77
2022/12/26 01:45:03;;;;;;;47.47;13.07;;;9.60;99.90;;;;;;4972335;28;20042;-77
2022/12/26 01:47:49;;;;;;;52.78;15.25;;;9.70;99.90;;;;;;4972352;28;20053;-78
2022/12/26 01:50:34;;;;;;;25.17;9.82;;;9.80;99.90;;;;;;4971063;28;20078;-78
2022/12/26 01:53:18;;;;;;;10.98;8.23;;;9.80;99.90;;;;;;4975369;28;20043;-78
2022/12/26 01:55:50;;;;;;;12.98;7.43;;;9.90;99.90;;;;;;4991450;28;20118;-78
2022/12/26 01:58:25;;;;;;;9.68;7.00;;;10.00;99.90;;;;;;4989458;28;20141;-78
2022/12/26 02:00:53;;;;;;;13.82;8.80;;;10.10;99.90;;;;;;4990221;28;20421;-77
2022/12/26 02:06:09;;;;;;;18.92;10.23;;;10.20;99.90;;;;;;4951624;29;20329;-79
2022/12/26 02:08:38;;;;;;;83.70;19.67;;;10.30;99.90;;;;;;4953000;28;20053;-77
2022/12/26 02:11:31;;;;;;;21.67;12.90;;;10.30;99.90;;;;;;4954384;28;20109;-78
2022/12/26 02:14:00;;;;;;;17.13;10.77;;;10.30;99.90;;;;;;4951951;28;20043;-77
2022/12/26 02:16:28;;;;;;;15.98;10.40;;;10.30;99.90;;;;;;4952621;28;20075;-77
2022/12/26 02:18:56;;;;;;;13.77;9.20;;;10.40;99.90;;;;;;4951108;29;20051;-77
2022/12/26 02:22:05;;;;;;;13.80;8.23;;;10.40;99.90;;;;;;4957366;28;20083;-78
2022/12/26 02:24:54;;;;;;;14.82;8.27;;;10.40;99.90;;;;;;4948879;28;20058;-78
2022/12/26 02:27:39;;;;;;;13.75;7.50;;;10.50;99.90;;;;;;4952505;28;20079;-78
2022/12/26 02:30:35;;;;;;;11.80;6.63;;;10.50;99.90;;;;;;4952347;28;20238;-78
2022/12/26 02:33:24;;;;;;;9.65;6.43;;;10.50;99.90;;;;;;4968285;28;20101;-78
2022/12/26 02:36:36;;;;;;;14.27;6.07;;;10.60;99.90;;;;;;4969721;28;20045;-78
2022/12/26 02:40:17;;;;;;;24.60;6.70;;;10.60;99.90;;;;;;4961472;28;20086;-77
2022/12/26 02:43:07;;;;;;;18.08;5.75;;;10.60;99.90;;;;;;4880517;28;20388;-77
2022/12/26 02:48:59;;;;;;;9.98;4.80;;;10.50;99.90;;;;;;4970106;28;20433;-78
2022/12/26 03:15:00;;;;;;;4.32;3.25;;;10.50;99.90;;;;;;4951294;29;20053;-78
2022/12/26 03:17:56;;;;;;;6.05;3.20;;;10.50;99.90;;;;;;4933849;29;20059;-78
2022/12/26 03:20:30;;;;;;;9.40;3.17;;;10.40;99.90;;;;;;4950772;28;20063;-77
2022/12/26 03:23:00;;;;;;;5.32;2.63;;;10.30;99.90;;;;;;4959591;28;20047;-77
2022/12/26 03:28:49;;;;;;;4.20;2.80;;;10.30;99.90;;;;;;4969460;28;20051;-78
2022/12/26 03:31:17;;;;;;;3.78;2.55;;;10.40;99.90;;;;;;4968460;28;20062;-78
2022/12/26 03:36:35;;;;;;;9.07;4.03;;;10.20;99.90;;;;;;4970950;28;20053;-79
2022/12/26 04:41:34;;;;;;;37.03;12.10;;;9.30;99.90;;;;;;4961379;28;20082;-78
2022/12/26 04:44:23;;;;;;;27.92;6.95;;;9.80;99.90;;;;;;4950667;28;20043;-79
2022/12/26 04:46:53;;;;;;;19.92;7.32;;;9.60;99.90;;;;;;4950821;28;20490;-78
2022/12/26 04:52:10;;;;;;;21.15;5.78;;;9.40;99.90;;;;;;4948640;29;20062;-78
2022/12/26 04:54:37;;;;;;;13.00;3.58;;;9.50;99.90;;;;;;4950465;28;20043;-79
2022/12/26 04:57:06;;;;;;;28.35;4.18;;;9.50;99.90;;;;;;4953121;28;20114;-78
2022/12/26 04:59:33;;;;;;;16.17;3.03;;;9.50;99.90;;;;;;4960982;28;20434;-79
2022/12/26 05:10:27;;;;;;;12.27;2.17;;;9.50;99.90;;;;;;4959240;28;20051;-79
2022/12/26 05:12:55;;;;;;;11.02;2.45;;;9.50;99.90;;;;;;4953805;28;20047;-79
2022/12/26 05:15:23;;;;;;;8.00;2.58;;;9.50;99.90;;;;;;4965250;28;20065;-78
2022/12/26 05:29:08;;;;;;;4.70;2.00;;;9.70;99.90;;;;;;4956524;28;20038;-78
2022/12/26 05:31:36;;;;;;;11.05;2.88;;;9.70;99.90;;;;;;4971437;28;20412;-79
2022/12/26 05:34:05;;;;;;;14.45;3.97;;;9.80;99.90;;;;;;4970727;28;20043;-79
2022/12/26 05:36:41;;;;;;;6.22;2.65;;;9.90;99.90;;;;;;4970663;28;20580;-78
2022/12/26 05:39:09;;;;;;;13.20;2.90;;;10.00;99.90;;;;;;4955382;28;20053;-79
2022/12/26 05:41:39;;;;;;;9.35;2.95;;;10.00;99.90;;;;;;4972225;28;20053;-79
2022/12/26 05:44:08;;;;;;;26.30;3.92;;;10.00;99.90;;;;;;4971222;28;20049;-79
2022/12/26 05:46:37;;;;;;;11.32;2.50;;;10.10;99.90;;;;;;4970274;28;20105;-78
2022/12/26 05:49:05;;;;;;;4.22;2.35;;;10.00;99.90;;;;;;4956371;28;20197;-79
2022/12/26 05:51:34;;;;;;;15.88;3.08;;;10.00;99.90;;;;;;4971053;28;20150;-78
2022/12/26 05:54:02;;;;;;;13.65;3.80;;;10.10;99.90;;;;;;4970193;28;20055;-78
2022/12/26 05:56:30;;;;;;;16.95;3.67;;;10.00;99.90;;;;;;4971149;28;20039;-79
2022/12/26 05:58:59;;;;;;;19.85;3.40;;;10.00;99.90;;;;;;4955780;28;20134;-79
2022/12/26 06:01:28;;;;;;;16.02;2.67;;;10.00;99.90;;;;;;4972286;28;20093;-78
2022/12/26 06:03:58;;;;;;;18.33;3.38;;;9.90;99.90;;;;;;4971648;28;20046;-79
2022/12/26 06:06:27;;;;;;;13.82;2.70;;;9.90;99.90;;;;;;4970816;28;20050;-80
2022/12/26 06:08:56;;;;;;;8.20;2.60;;;9.80;99.90;;;;;;4955393;28;20753;-80
2022/12/26 06:11:25;;;;;;;10.13;3.38;;;9.90;99.90;;;;;;4972293;28;20484;-79
2022/12/26 06:13:54;;;;;;;9.32;2.17;;;9.90;99.90;;;;;;4971926;28;20069;-80
2022/12/26 06:16:22;;;;;;;9.02;2.25;;;9.90;99.90;;;;;;4970176;28;20162;-80
2022/12/26 06:18:49;;;;;;;12.40;2.80;;;9.90;99.90;;;;;;4955556;28;20526;-78
2022/12/26 06:21:18;;;;;;;14.68;3.25;;;9.90;99.90;;;;;;4937714;28;20046;-79
2022/12/26 06:23:46;;;;;;;12.00;2.97;;;9.90;99.90;;;;;;4971687;28;20051;-79
2022/12/26 06:26:15;;;;;;;5.60;2.65;;;10.10;99.90;;;;;;4954152;28;20062;-79
2022/12/26 06:28:43;;;;;;;2.90;2.10;;;10.30;99.90;;;;;;4956299;28;20047;-79
2022/12/26 06:31:20;;;;;;;6.32;4.07;;;10.70;99.90;;;;;;4951020;29;20043;-79
2022/12/26 06:33:50;;;;;;;17.83;10.63;;;11.10;99.90;;;;;;4949766;28;20605;-79
2022/12/26 06:36:20;;;;;;;11.73;8.80;;;11.60;99.90;;;;;;4953462;28;20061;-79
2022/12/26 06:38:48;;;;;;;19.23;11.20;;;12.30;99.90;;;;;;4965909;28;20055;-79
2022/12/26 06:41:18;;;;;;;35.58;19.33;;;13.00;99.90;;;;;;4952139;28;20129;-79
2022/12/26 06:43:46;;;;;;;9.15;5.80;;;13.70;99.90;;;;;;4951673;28;20043;-78
2022/12/26 06:46:16;;;;;;;5.13;3.42;;;14.30;99.90;;;;;;4950374;29;20055;-79
2022/12/26 06:48:44;;;;;;;25.13;16.98;;;14.80;99.90;;;;;;4966684;28;20047;-79
2022/12/26 06:51:14;;;;;;;52.78;36.25;;;15.30;99.90;;;;;;4952421;28;20118;-79
2022/12/26 06:53:42;;;;;;;24.98;18.73;;;16.00;99.90;;;;;;4950502;29;20053;-76
2022/12/26 06:56:13;;;;;;;9.05;5.72;;;16.50;99.90;;;;;;4950724;29;20059;-78
2022/12/26 06:58:42;;;;;;;4.75;3.50;;;17.00;99.90;;;;;;4964187;28;20065;-79
2022/12/26 07:01:16;;;;;;;4.25;2.78;;;17.50;99.90;;;;;;4951049;28;20153;-78
2022/12/26 07:03:46;;;;;;;4.28;2.67;;;18.00;99.90;;;;;;4951135;28;20069;-77
2022/12/26 07:06:28;;;;;;;4.07;2.85;;;18.70;99.90;;;;;;4952040;28;20152;-78
2022/12/26 07:08:59;;;;;;;19.42;14.65;;;19.30;99.90;;;;;;4965441;28;20777;-78
2022/12/26 07:11:30;;;;;;;8.75;5.95;;;19.70;99.90;;;;;;4951509;28;20066;-78
2022/12/26 07:13:58;;;;;;;4.47;3.00;;;20.40;99.90;;;;;;4950898;29;20648;-78
2022/12/26 07:16:26;;;;;;;3.65;2.17;;;21.10;99.90;;;;;;4951160;28;20051;-77
2022/12/26 07:18:55;;;;;;;4.13;2.78;;;21.80;99.90;;;;;;4966854;28;20051;-78
2022/12/26 07:21:23;;;;;;;3.38;2.67;;;22.20;99.90;;;;;;4965490;28;20047;-78
2022/12/26 07:23:52;;;;;;;3.67;2.58;;;22.60;99.90;;;;;;4968912;28;20489;-78
2022/12/26 07:26:20;;;;;;;5.85;2.88;;;22.90;99.90;;;;;;4969921;28;20070;-78
2022/12/26 07:28:51;;;;;;;7.47;3.17;;;22.90;99.90;;;;;;4969708;28;20101;-78
2022/12/26 07:31:19;;;;;;;6.15;4.28;;;23.10;99.90;;;;;;4956697;28;20076;-77
2022/12/26 07:33:51;;;;;;;6.38;4.10;;;23.40;99.90;;;;;;4958378;28;20059;-77
2022/12/26 07:36:19;;;;;;;7.43;4.75;;;23.80;99.90;;;;;;4958394;28;20149;-76
2022/12/26 07:38:47;;;;;;;7.45;5.72;;;24.10;99.90;;;;;;4963959;28;20102;-76
2022/12/26 07:44:00;;;;;;;30.73;21.40;;;24.30;99.20;;;;;;4972403;28;20572;-76
2022/12/26 07:46:29;;;;;;;22.13;17.42;;;24.40;99.10;;;;;;4966249;28;20078;-76
2022/12/26 07:48:57;;;;;;;9.45;7.53;;;24.30;99.30;;;;;;4964284;28;20587;-77
2022/12/26 07:51:24;;;;;;;7.35;5.97;;;23.80;99.60;;;;;;4958837;28;20058;-76
2022/12/26 07:53:52;;;;;;;5.32;3.60;;;23.30;99.90;;;;;;4975562;28;20043;-76
2022/12/26 07:56:19;;;;;;;4.18;3.13;;;22.80;99.90;;;;;;4955725;28;20525;-76
2022/12/26 07:58:48;;;;;;;5.97;3.72;;;22.50;99.90;;;;;;4959236;28;20068;-77
2022/12/26 08:01:16;;;;;;;4.20;3.22;;;22.10;99.90;;;;;;4952889;28;20181;-77
2022/12/26 08:03:46;;;;;;;6.75;4.32;;;21.80;99.90;;;;;;4972148;28;20054;-77
2022/12/26 08:06:14;;;;;;;6.18;4.25;;;21.60;99.90;;;;;;4968781;28;20501;-76
2022/12/26 08:08:41;;;;;;;11.82;8.75;;;21.20;99.90;;;;;;4962804;28;20591;-76
2022/12/26 08:11:17;;;;;;;12.35;8.13;;;21.00;99.90;;;;;;4953618;28;20055;-77
2022/12/26 08:13:45;;;;;;;15.18;8.77;;;20.60;99.90;;;;;;4964383;28;20050;-76
2022/12/26 08:16:13;;;;;;;11.98;7.60;;;20.40;99.90;;;;;;4965589;28;20058;-78
2022/12/26 08:18:42;;;;;;;8.82;6.22;;;20.00;99.90;;;;;;4957417;28;20126;-76
2022/12/26 08:21:10;;;;;;;8.05;5.47;;;19.90;99.90;;;;;;4963437;28;20465;-77
2022/12/26 08:23:39;;;;;;;7.82;5.18;;;19.80;99.90;;;;;;4952652;28;20039;-77
2022/12/26 08:26:08;;;;;;;9.80;5.10;;;19.70;99.90;;;;;;4963736;28;20050;-77
2022/12/26 08:28:36;;;;;;;8.48;5.38;;;19.80;99.90;;;;;;4964139;28;20190;-77
2022/12/26 08:31:05;;;;;;;4.55;3.30;;;19.80;99.90;;;;;;4957505;28;20047;-77
2022/12/26 08:33:34;;;;;;;5.50;3.92;;;19.80;99.90;;;;;;4954780;28;20097;-77
2022/12/26 08:36:03;;;;;;;7.00;5.45;;;19.80;99.90;;;;;;4965873;28;20042;-78
2022/12/26 08:38:30;;;;;;;4.75;2.95;;;19.80;99.90;;;;;;4962860;28;20047;-77
2022/12/26 08:41:00;;;;;;;6.47;3.78;;;19.70;99.90;;;;;;4966174;28;20117;-77
2022/12/26 08:43:28;;;;;;;9.88;6.85;;;19.60;99.90;;;;;;4958345;28;20078;-77
2022/12/26 08:46:17;;;;;;;4.40;3.45;;;19.40;99.90;;;;;;4959757;28;20045;-78
2022/12/26 08:48:45;;;;;;;5.15;3.10;;;19.20;99.90;;;;;;4967581;28;20110;-77
2022/12/26 08:51:18;;;;;;;4.75;3.65;;;18.90;99.90;;;;;;4959882;28;20042;-78
2022/12/26 08:53:48;;;;;;;5.13;3.45;;;18.80;99.90;;;;;;4958941;28;20534;-77
2022/12/26 08:56:21;;;;;;;3.55;2.65;;;18.70;99.90;;;;;;4964545;28;20043;-77
2022/12/26 08:58:49;;;;;;;7.95;4.78;;;18.60;99.90;;;;;;4975762;28;20046;-75
2022/12/26 09:01:24;;;;;;;3.95;2.50;;;18.50;99.90;;;;;;4960662;28;20058;-77
2022/12/26 09:03:57;;;;;;;5.15;3.58;;;18.40;99.90;;;;;;4958669;28;20067;-76
2022/12/26 09:06:25;;;;;;;3.75;2.70;;;18.50;99.90;;;;;;4964582;28;20054;-77
2022/12/26 09:08:53;;;;;;;5.25;2.60;;;18.50;99.90;;;;;;4964763;28;20038;-77
2022/12/26 09:11:27;;;;;;;5.63;3.25;;;18.70;99.90;;;;;;4969157;28;20047;-77
2022/12/26 09:13:57;;;;;;;3.15;2.05;;;18.80;99.90;;;;;;4959868;28;20046;-76
2022/12/26 09:16:30;;;;;;;3.33;2.08;;;19.00;99.90;;;;;;4942175;28;20453;-77
2022/12/26 09:19:03;;;;;;;4.53;2.53;;;19.20;99.90;;;;;;4966599;28;20047;-77
2022/12/26 09:21:32;;;;;;;2.55;2.00;;;19.30;99.90;;;;;;4967923;28;20078;-77
2022/12/26 09:24:01;;;;;;;4.13;2.45;;;19.50;99.90;;;;;;4963647;28;20063;-77
2022/12/26 09:26:29;;;;;;;4.35;3.20;;;19.50;99.90;;;;;;4969380;28;20046;-78
2022/12/26 09:28:58;;;;;;;5.60;3.88;;;19.60;99.90;;;;;;4962984;28;20374;-77
2022/12/26 09:31:28;;;;;;;4.07;2.30;;;19.70;99.90;;;;;;4970218;28;20039;-77
2022/12/26 09:33:56;;;;;;;2.75;1.98;;;19.60;99.90;;;;;;4967593;28;20065;-77
2022/12/26 09:36:29;;;;;;;2.78;1.50;;;19.50;99.90;;;;;;4961526;28;20109;-77
2022/12/26 09:38:57;;;;;;;3.42;2.05;;;19.40;99.90;;;;;;4971336;28;20169;-77
2022/12/26 09:41:53;;;;;;;4.18;2.92;;;19.60;99.90;;;;;;4953454;28;20134;-77
2022/12/26 09:45:00;;;;;;;3.00;1.90;;;19.90;99.90;;;;;;4953191;29;20128;-76
2022/12/26 09:47:43;;;;;;;3.78;1.45;;;20.00;99.90;;;;;;4956201;28;20466;-76
2022/12/26 09:50:28;;;;;;;2.63;1.80;;;20.10;99.90;;;;;;4962819;28;20379;-76
2022/12/26 09:53:04;;;;;;;4.10;1.75;;;20.00;99.90;;;;;;4952086;29;20050;-76
2022/12/26 09:55:40;;;;;;;2.42;1.83;;;20.10;99.90;;;;;;4950674;29;20063;-76
2022/12/26 09:58:27;;;;;;;3.08;1.98;;;19.90;99.90;;;;;;4955075;28;20047;-77
2022/12/26 10:01:04;;;;;;;;;;;20.10;99.90;;;;;;4966338;28;20406;-76
2022/12/26 10:03:40;;;;;;;2.65;1.65;;;20.10;99.90;;;;;;4964918;28;19933;-76
2022/12/26 10:06:21;;;;;;;3.38;1.67;;;20.10;99.90;;;;;;4970752;28;20083;-76
2022/12/26 10:09:20;;;;;;;3.45;2.10;;;20.20;99.90;;;;;;4970658;28;20771;-76
2022/12/26 10:12:05;;;;;;;16.88;8.23;;;20.00;99.90;;;;;;4950022;29;20540;-77
2022/12/26 10:14:57;;;;;;;8.85;2.70;;;20.00;99.90;;;;;;4956858;28;20071;-76
2022/12/26 10:17:42;;;;;;;4.90;3.40;;;19.80;99.90;;;;;;4955831;28;20047;-77
2022/12/26 10:20:44;;;;;;;12.05;7.10;;;20.00;99.90;;;;;;4969649;28;20039;-78
2022/12/26 10:23:25;;;;;;;9.57;6.32;;;20.20;99.90;;;;;;4943808;28;20043;-76
2022/12/26 10:26:08;;;;;;;7.97;5.30;;;20.40;99.90;;;;;;4942839;28;20055;-76
2022/12/26 10:28:42;;;;;;;4.25;2.78;;;20.40;99.90;;;;;;4969969;28;20047;-79
2022/12/26 10:31:33;;;;;;;4.95;2.78;;;20.40;99.90;;;;;;4969914;28;20039;-80
2022/12/26 10:34:04;;;;;;;5.00;2.65;;;20.50;99.90;;;;;;4926337;28;20216;-72
2022/12/26 10:36:54;;;;;;;4.90;3.45;;;20.70;99.90;;;;;;4701881;28;20318;-72
2022/12/26 10:39:38;;;;;;;4.88;2.97;;;20.80;99.90;;;;;;4820191;28;20058;-77
2022/12/26 10:42:30;;;;;;;5.40;3.40;;;20.90;99.90;;;;;;4966288;28;20050;-77
2022/12/26 10:44:59;;;;;;;4.65;3.13;;;20.80;99.90;;;;;;4965487;28;20047;-76
2022/12/26 10:47:33;;;;;;;4.50;2.20;;;20.60;99.90;;;;;;4967847;28;20047;-76
2022/12/26 10:50:02;;;;;;;16.17;9.65;;;20.50;99.90;;;;;;4965760;28;20075;-76
2022/12/26 10:52:36;;;;;;;15.75;11.05;;;20.70;99.90;;;;;;4965958;28;20070;-77
2022/12/26 10:55:05;;;;;;;4.43;3.03;;;20.80;99.90;;;;;;4960720;28;20622;-76
2022/12/26 10:57:35;;;;;;;4.47;2.80;;;21.00;99.90;;;;;;4965125;28;20039;-76
2022/12/26 11:00:18;;;;;;;3.35;2.55;;;20.90;99.90;;;;;;4963148;28;20106;-75
2022/12/26 11:03:02;;;;;;;5.50;3.10;;;21.00;99.90;;;;;;4957744;28;20043;-76
2022/12/26 11:05:31;;;;;;;7.28;3.20;;;21.00;99.90;;;;;;4970005;28;20405;-76
2022/12/26 11:08:35;;;;;;;4.57;3.25;;;20.60;99.90;;;;;;4953428;28;20050;-78
2022/12/26 11:11:47;;;;;;;6.80;3.10;;;20.40;99.90;;;;;;4959595;28;20137;-77
2022/12/26 11:14:37;;;;;;;6.28;3.72;;;20.50;99.90;;;;;;4948913;28;20055;-73
2022/12/26 11:17:12;;;;;;;6.45;3.83;;;20.60;99.90;;;;;;4967387;28;20050;-76
2022/12/26 11:19:43;;;;;;;4.55;3.03;;;20.60;99.90;;;;;;4969473;28;20039;-76
2022/12/26 11:22:24;;;;;;;6.57;4.15;;;20.70;99.90;;;;;;4970309;28;20552;-75
2022/12/26 11:25:19;;;;;;;8.68;4.32;;;20.90;99.90;;;;;;4969876;28;20035;-75
2022/12/26 11:27:55;;;;;;;11.50;5.15;;;20.70;99.90;;;;;;4962132;28;20154;-76
2022/12/26 11:30:25;;;;;;;8.23;4.18;;;20.80;99.90;;;;;;4966542;28;20053;-77
2022/12/26 11:33:21;;;;;;;9.48;5.43;;;20.90;99.90;;;;;;4967435;28;20054;-77
2022/12/26 11:36:17;;;;;;;16.27;5.20;;;20.80;99.90;;;;;;4967791;28;20102;-77
2022/12/26 11:38:48;;;;;;;16.10;8.27;;;20.70;99.90;;;;;;4967987;28;20061;-76
2022/12/26 11:41:30;;;;;;;9.13;6.00;;;20.60;99.90;;;;;;4964874;28;20043;-76
2022/12/26 11:44:03;;;;;;;7.65;4.43;;;20.60;99.90;;;;;;4967985;28;20062;-76
2022/12/26 11:46:53;;;;;;;42.50;25.10;;;20.50;99.90;;;;;;4966991;28;20047;-76
2022/12/26 11:49:48;;;;;;;8.93;5.85;;;20.30;99.90;;;;;;4959393;28;20154;-76
2022/12/26 11:52:42;;;;;;;34.88;19.75;;;20.30;99.90;;;;;;4961090;28;20130;-76
2022/12/26 11:55:32;;;;;;;12.18;8.10;;;20.20;99.90;;;;;;4967869;28;20046;-76
2022/12/26 11:58:05;;;;;;;392.73;260.30;;;19.80;99.90;;;;;;4966721;28;20034;-75
2022/12/26 12:00:34;;;;;;;29.05;20.83;;;19.80;99.90;;;;;;4968470;28;20540;-76
2022/12/26 12:03:09;;;;;;;9.60;6.07;;;19.80;99.90;;;;;;4962827;28;20050;-75
2022/12/26 12:06:14;;;;;;;11.90;5.97;;;20.00;99.90;;;;;;4954455;28;20047;-75
2022/12/26 12:08:42;;;;;;;9.60;6.43;;;20.00;99.90;;;;;;4931027;28;20051;-75
2022/12/26 12:11:32;;;;;;;10.55;6.35;;;20.20;99.90;;;;;;4963864;28;20046;-76
2022/12/26 12:14:19;;;;;;;196.30;123.50;;;20.30;99.90;;;;;;4960411;28;20047;-76
2022/12/26 12:17:25;;;;;;;127.30;78.33;;;20.30;99.90;;;;;;4960633;28;20130;-76
2022/12/26 12:20:11;;;;;;;14.00;8.30;;;20.50;99.90;;;;;;4968730;28;20070;-73
2022/12/26 12:23:03;;;;;;;14.05;5.45;;;20.40;99.90;;;;;;4970194;28;20548;-74
2022/12/26 12:25:37;;;;;;;7.95;5.80;;;20.40;99.90;;;;;;4961900;28;20070;-76
2022/12/26 12:28:48;;;;;;;6.97;5.32;;;20.20;99.90;;;;;;4972393;28;20074;-76
2022/12/26 12:31:43;;;;;;;11.68;6.93;;;19.80;99.90;;;;;;4928198;29;20052;-76
2022/12/26 12:34:11;;;;;;;11.57;7.43;;;19.60;99.90;;;;;;4922427;29;20059;-76
2022/12/26 12:37:17;;;;;;;12.65;8.50;;;19.60;99.90;;;;;;4955661;28;20526;-76
2022/12/26 12:40:14;;;;;;;13.93;8.52;;;19.70;99.90;;;;;;4970834;28;20047;-75
2022/12/26 12:42:51;;;;;;;10.88;8.30;;;19.80;99.90;;;;;;4972650;28;20051;-75
2022/12/26 12:45:29;;;;;;;10.93;7.78;;;19.80;99.90;;;;;;4965768;28;20054;-75
2022/12/26 12:48:15;;;;;;;13.07;9.63;;;19.70;99.90;;;;;;4969547;28;20136;-76
2022/12/26 12:51:06;;;;;;;11.93;8.43;;;19.80;99.90;;;;;;4751448;28;20155;-73
2022/12/26 12:53:53;;;;;;;14.25;9.25;;;20.00;99.90;;;;;;4964079;28;20054;-75
2022/12/26 12:56:32;;;;;;;10.32;7.93;;;20.00;99.90;;;;;;4949990;29;20054;-76
2022/12/26 12:59:41;;;;;;;10.70;7.85;;;20.10;99.90;;;;;;4968225;28;20073;-77
2022/12/26 13:02:38;;;;;;;10.00;7.28;;;20.10;99.90;;;;;;4948820;29;20560;-76
2022/12/26 13:05:22;;;;;;;12.45;8.95;;;20.10;99.90;;;;;;4936299;29;20055;-75
2022/12/26 13:08:13;;;;;;;10.68;6.70;;;20.00;99.90;;;;;;4952579;28;20469;-76
2022/12/26 13:10:54;;;;;;;10.82;8.23;;;19.90;99.90;;;;;;4960439;28;20055;-76
2022/12/26 13:14:01;;;;;;;11.23;8.05;;;19.80;99.90;;;;;;4949888;28;20418;-76
2022/12/26 13:16:42;;;;;;;12.60;8.75;;;19.70;99.90;;;;;;4949263;29;20051;-77
2022/12/26 13:19:21;;;;;;;18.15;10.32;;;19.60;99.90;;;;;;4963485;28;20051;-75
2022/12/26 13:21:53;;;;;;;15.65;9.77;;;19.60;99.90;;;;;;4952047;28;20051;-75
2022/12/26 13:24:41;;;;;;;13.60;9.40;;;19.40;99.90;;;;;;4951842;28;20054;-75
2022/12/26 13:27:23;;;;;;;13.38;9.73;;;19.30;99.90;;;;;;4935004;29;20086;-76
2022/12/26 13:29:52;;;;;;;11.18;7.80;;;19.20;99.90;;;;;;4968227;28;20394;-76
2022/12/26 13:32:29;;;;;;;10.85;7.57;;;19.20;99.90;;;;;;4970638;28;20105;-75
2022/12/26 13:35:02;;;;;;;12.38;8.40;;;19.10;99.90;;;;;;4971009;28;20137;-75
2022/12/26 13:37:39;;;;;;;12.95;8.45;;;19.00;99.90;;;;;;4972649;28;20568;-75
2022/12/26 13:40:10;;;;;;;13.90;7.72;;;19.00;99.90;;;;;;4956134;28;20117;-76
2022/12/26 13:45:36;;;;;;;16.48;10.13;;;18.50;99.90;;;;;;4949649;28;20162;-75
2022/12/26 13:48:16;;;;;;;13.38;8.98;;;18.40;99.90;;;;;;4970808;28;20062;-75
2022/12/26 13:50:47;;;;;;;13.10;8.13;;;18.40;99.90;;;;;;4961988;28;20132;-75
2022/12/26 13:53:25;;;;;;;12.25;8.27;;;18.40;99.90;;;;;;4953040;28;20047;-76
2022/12/26 13:55:53;;;;;;;14.57;12.20;;;18.40;99.90;;;;;;4951268;29;20055;-76
2022/12/26 13:58:48;;;;;;;17.85;11.10;;;18.30;99.90;;;;;;4956756;28;20039;-77
2022/12/26 14:01:23;;;;;;;10.13;6.85;;;18.30;99.90;;;;;;4958618;28;20074;-77
2022/12/26 14:04:01;;;;;;;13.90;7.80;;;18.10;99.90;;;;;;4951740;29;20082;-77
2022/12/26 14:06:49;;;;;;;11.43;7.03;;;18.10;99.90;;;;;;4951920;29;20043;-76
2022/12/26 14:09:29;;;;;;;13.02;7.88;;;17.90;99.90;;;;;;4965515;28;20051;-77
2022/12/26 14:12:21;;;;;;;12.57;9.52;;;17.80;99.90;;;;;;4953202;28;20086;-76
2022/12/26 14:15:08;;;;;;;11.77;9.30;;;17.70;99.90;;;;;;4951212;29;20121;-76
2022/12/26 14:18:00;;;;;;;11.60;8.15;;;17.60;99.90;;;;;;4951716;29;20043;-76
2022/12/26 14:20:41;;;;;;;13.15;8.40;;;17.70;99.90;;;;;;4955891;28;20154;-77
2022/12/26 14:23:11;;;;;;;11.23;8.27;;;17.60;99.90;;;;;;4971769;28;20051;-76
2022/12/26 14:25:51;;;;;;;11.48;8.63;;;17.60;99.90;;;;;;4968464;28;20046;-77
2022/12/26 14:28:48;;;;;;;11.85;8.35;;;17.50;99.90;;;;;;4965459;28;20038;-78
2022/12/26 14:31:28;;;;;;;15.30;9.45;;;17.50;99.90;;;;;;4954576;28;20362;-76
2022/12/26 14:34:04;;;;;;;11.70;7.80;;;17.50;99.90;;;;;;4971075;28;20097;-77
2022/12/26 14:36:39;;;;;;;12.73;8.93;;;17.50;99.90;;;;;;4954766;28;20085;-77
2022/12/26 14:39:10;;;;;;;12.18;7.95;;;17.40;99.90;;;;;;4959574;28;20047;-76
2022/12/26 14:45:00;;;;;;;15.30;10.05;;;17.30;99.90;;;;;;4953731;28;20069;-76
2022/12/26 14:47:37;;;;;;;16.23;9.43;;;17.20;99.90;;;;;;4971234;28;20042;-76
2022/12/26 14:50:42;;;;;;;16.25;10.98;;;17.10;99.90;;;;;;4953798;28;20114;-77
2022/12/26 14:53:27;;;;;;;19.73;12.32;;;17.10;99.90;;;;;;4970992;28;20042;-77
2022/12/26 14:55:55;;;;;;;17.55;11.63;;;17.00;99.90;;;;;;4953973;28;20809;-77
2022/12/26 14:58:44;;;;;;;23.73;11.77;;;17.00;99.90;;;;;;5106724;27;20905;-75
2022/12/26 15:01:11;;;;;;;15.27;10.13;;;16.90;99.90;;;;;;5106685;28;20135;-75
2022/12/26 15:03:39;;;;;;;17.63;10.90;;;16.80;99.90;;;;;;5106347;28;20109;-75
2022/12/26 15:06:21;;;;;;;21.77;12.63;;;16.70;99.90;;;;;;5087906;28;20044;-75
2022/12/26 15:09:32;;;;;;;17.90;12.93;;;16.70;99.90;;;;;;5105300;28;20229;-75
2022/12/26 15:12:49;;;;;;;19.02;14.70;;;16.70;99.90;;;;;;5104654;28;20051;-75
2022/12/26 15:15:31;;;;;;;23.67;15.98;;;16.60;99.90;;;;;;5094934;28;20044;-75
2022/12/26 15:18:31;;;;;;;27.48;19.40;;;16.60;99.90;;;;;;5087300;28;20405;-75
2022/12/26 15:21:29;;;;;;;24.55;16.25;;;16.50;99.90;;;;;;5036480;28;20056;-75
2022/12/26 15:24:02;;;;;;;23.17;15.45;;;16.50;99.90;;;;;;5103644;28;20055;-75
2022/12/26 15:26:36;;;;;;;21.85;15.10;;;16.40;99.90;;;;;;5104750;28;20078;-75
2022/12/26 15:29:22;;;;;;;22.30;15.07;;;16.30;99.90;;;;;;5088046;28;20048;-75
2022/12/26 15:32:27;;;;;;;26.85;17.65;;;16.30;99.90;;;;;;5105740;28;20046;-75
2022/12/26 15:35:07;;;;;;;24.90;17.10;;;16.10;99.90;;;;;;5096413;28;20044;-75
2022/12/26 15:38:07;;;;;;;20.38;14.43;;;16.00;99.90;;;;;;5098003;28;20040;-75